createdAt,value
2022-08-02T00:01:25.891Z,2.22
2022-08-02T00:03:56.087Z,2.90
2022-08-02T00:06:26.465Z,2.50
2022-08-02T00:08:56.683Z,2.50
2022-08-02T00:11:29.616Z,2.35
2022-08-02T00:14:00.026Z,2.40
2022-08-02T00:16:38.284Z,2.60
2022-08-02T00:19:08.976Z,2.25
2022-08-02T00:21:39.135Z,2.20
2022-08-02T00:24:29.163Z,2.38
2022-08-02T00:29:42.383Z,2.28
2022-08-02T00:32:22.358Z,2.28
2022-08-02T00:34:52.740Z,2.15
2022-08-02T00:37:22.911Z,2.42
2022-08-02T00:39:53.121Z,2.30
2022-08-02T00:42:26.596Z,2.38
2022-08-02T00:44:56.747Z,2.40
2022-08-02T00:47:26.939Z,2.20
2022-08-02T00:49:57.119Z,2.30
2022-08-02T00:52:27.989Z,2.25
2022-08-02T00:54:58.219Z,2.20
2022-08-02T00:57:31.054Z,2.20
2022-08-02T01:00:01.185Z,2.20
2022-08-02T01:02:31.699Z,2.10
2022-08-02T01:05:01.988Z,2.05
2022-08-02T01:07:32.139Z,2.30
2022-08-02T01:10:03.069Z,2.17
2022-08-02T01:12:35.881Z,2.25
2022-08-02T01:15:11.041Z,2.58
2022-08-02T01:17:51.971Z,2.20
2022-08-02T01:20:46.948Z,2.40
2022-08-02T01:23:37.402Z,2.53
2022-08-02T01:26:36.427Z,2.10
2022-08-02T01:29:13.517Z,2.38
2022-08-02T01:31:50.578Z,2.40
2022-08-02T01:34:25.741Z,2.55
2022-08-02T01:37:04.195Z,2.42
2022-08-02T01:39:37.899Z,2.50
2022-08-02T01:42:09.165Z,2.33
2022-08-02T01:44:45.556Z,2.42
2022-08-02T01:47:25.820Z,2.42
2022-08-02T01:50:00.901Z,2.30
2022-08-02T01:52:36.567Z,2.55
2022-08-02T01:55:18.901Z,2.50
2022-08-02T01:57:53.569Z,2.20
2022-08-02T02:00:31.868Z,2.30
2022-08-02T02:03:04.075Z,2.22
2022-08-02T02:05:36.358Z,2.20
2022-08-02T02:08:10.662Z,2.40
2022-08-02T02:10:43.306Z,2.33
2022-08-02T02:13:20.632Z,2.28
2022-08-02T02:16:08.092Z,2.17
2022-08-02T02:18:43.953Z,2.40
2022-08-02T02:21:16.840Z,2.53
2022-08-02T02:23:47.055Z,2.30
2022-08-02T02:26:31.113Z,2.25
2022-08-02T02:29:04.958Z,2.33
2022-08-02T02:31:42.088Z,2.33
2022-08-02T02:34:17.954Z,2.42
2022-08-02T02:36:52.514Z,2.42
2022-08-02T02:39:26.224Z,2.40
2022-08-02T02:41:58.227Z,2.20
2022-08-02T02:44:30.117Z,2.40
2022-08-02T02:47:04.604Z,2.53
2022-08-02T02:49:38.183Z,2.13
2022-08-02T02:52:09.866Z,2.50
2022-08-02T02:54:41.669Z,2.42
2022-08-02T02:57:13.478Z,2.42
2022-08-02T02:59:49.184Z,2.40
2022-08-02T03:02:23.858Z,2.25
2022-08-02T03:04:57.967Z,2.30
2022-08-02T03:07:29.341Z,2.30
2022-08-02T03:10:00.140Z,2.35
2022-08-02T03:12:32.592Z,2.00
2022-08-02T03:15:05.245Z,2.33
2022-08-02T03:17:46.838Z,2.40
2022-08-02T03:20:19.810Z,2.22
2022-08-02T03:22:51.460Z,2.50
2022-08-02T03:25:22.145Z,2.45
2022-08-02T03:27:52.367Z,2.63
2022-08-02T03:30:24.768Z,2.28
2022-08-02T03:32:57.641Z,2.47
2022-08-02T03:35:27.916Z,2.33
2022-08-02T03:38:00.512Z,2.10
2022-08-02T03:40:31.590Z,2.50
2022-08-02T03:43:02.971Z,2.20
2022-08-02T03:45:34.576Z,2.28
2022-08-02T03:48:33.670Z,2.50
2022-08-02T03:50:59.592Z,2.53
2022-08-02T03:53:30.160Z,2.10
2022-08-02T03:56:00.794Z,2.30
2022-08-02T03:58:30.975Z,2.65
2022-08-02T04:01:02.293Z,2.45
2022-08-02T04:03:35.120Z,2.33
2022-08-02T04:06:05.373Z,2.28
2022-08-02T04:08:38.507Z,2.60
2022-08-02T04:11:22.181Z,2.50
2022-08-02T04:13:52.360Z,2.30
2022-08-02T04:16:37.752Z,2.65
2022-08-02T04:19:15.036Z,2.60
2022-08-02T04:21:52.044Z,2.72
2022-08-02T04:24:28.174Z,2.60
2022-08-02T04:27:06.437Z,2.75
2022-08-02T04:29:43.866Z,2.60
2022-08-02T04:32:17.682Z,2.40
2022-08-02T04:35:17.828Z,3.00
2022-08-02T04:38:08.583Z,2.63
2022-08-02T04:40:32.945Z,2.40
2022-08-02T04:43:03.192Z,2.70
2022-08-02T04:45:34.449Z,2.50
2022-08-02T04:48:05.800Z,2.95
2022-08-02T04:50:39.052Z,2.65
2022-08-02T04:53:09.348Z,2.80
2022-08-02T04:55:39.598Z,2.78
2022-08-02T04:58:30.143Z,2.65
2022-08-02T05:01:00.082Z,2.65
2022-08-02T05:03:30.417Z,3.08
2022-08-02T05:06:03.739Z,2.90
2022-08-02T05:08:52.937Z,2.97
2022-08-02T05:11:36.027Z,3.03
2022-08-02T05:14:07.248Z,3.13
2022-08-02T05:16:37.491Z,2.97
2022-08-02T05:19:08.116Z,3.17
2022-08-02T05:21:40.954Z,3.20
2022-08-02T05:24:12.137Z,3.78
2022-08-02T05:26:42.367Z,3.47
2022-08-02T05:29:12.663Z,3.65
2022-08-02T05:31:42.883Z,4.20
2022-08-02T05:34:13.046Z,5.15
2022-08-02T05:36:45.884Z,4.75
2022-08-02T05:39:19.207Z,4.88
2022-08-02T05:41:49.970Z,4.05
2022-08-02T05:44:20.199Z,4.13
2022-08-02T05:46:50.347Z,4.18
2022-08-02T05:49:20.629Z,4.28
2022-08-02T05:52:05.750Z,3.80
2022-08-02T05:54:44.394Z,4.05
2022-08-02T05:57:20.902Z,4.65
2022-08-02T06:00:05.842Z,3.70
2022-08-02T06:03:08.062Z,3.80
2022-08-02T06:05:43.749Z,4.35
2022-08-02T06:08:16.659Z,3.90
2022-08-02T06:10:50.603Z,3.90
2022-08-02T06:13:20.828Z,4.03
2022-08-02T06:15:58.326Z,3.90
2022-08-02T06:18:31.218Z,3.65
2022-08-02T06:22:31.402Z,3.30
2022-08-02T06:24:00.347Z,3.60
2022-08-02T06:26:31.632Z,3.70
2022-08-02T06:29:01.987Z,3.97
2022-08-02T06:31:32.834Z,3.85
2022-08-02T06:34:03.024Z,4.25
2022-08-02T06:36:41.486Z,4.35
2022-08-02T06:39:24.050Z,3.90
2022-08-02T06:41:58.347Z,4.47
2022-08-02T06:44:52.966Z,3.88
2022-08-02T06:47:24.558Z,3.70
2022-08-02T06:49:55.139Z,4.32
2022-08-02T06:52:29.775Z,4.13
2022-08-02T06:55:06.327Z,4.30
2022-08-02T06:57:37.035Z,3.35
2022-08-02T07:00:10.084Z,4.00
2022-08-02T07:02:40.936Z,3.80
2022-08-02T07:05:12.663Z,5.72
2022-08-02T07:07:42.906Z,4.25
2022-08-02T07:10:16.468Z,3.42
2022-08-02T07:12:47.244Z,3.40
2022-08-02T07:15:17.450Z,3.40
2022-08-02T07:17:47.668Z,2.88
2022-08-02T07:20:17.915Z,3.00
2022-08-02T07:22:48.092Z,2.83
2022-08-02T07:25:21.002Z,3.55
2022-08-02T07:27:51.245Z,2.80
2022-08-02T07:32:51.268Z,3.30
2022-08-02T07:35:22.605Z,2.80
2022-08-02T07:38:02.031Z,3.20
2022-08-02T07:40:35.402Z,3.50
2022-08-02T07:43:05.599Z,3.60
2022-08-02T07:45:36.313Z,2.65
2022-08-02T07:48:25.916Z,2.47
2022-08-02T07:50:56.129Z,2.50
2022-08-02T07:53:49.864Z,2.25
2022-08-02T07:56:19.324Z,3.15
2022-08-02T07:58:49.709Z,2.40
2022-08-02T08:01:19.916Z,2.10
2022-08-02T08:06:20.263Z,2.00
2022-08-02T08:08:59.311Z,1.90
2022-08-02T08:14:02.049Z,2.10
2022-08-02T08:19:02.580Z,1.90
2022-08-02T08:21:34.892Z,2.03
2022-08-02T08:24:05.107Z,2.13
2022-08-02T08:29:07.785Z,2.10
2022-08-02T08:31:40.309Z,2.30
2022-08-02T08:34:10.497Z,1.95
2022-08-02T08:36:40.800Z,2.35
2022-08-02T08:39:11.081Z,2.33
2022-08-02T08:41:46.945Z,2.38
2022-08-02T08:44:17.144Z,2.63
2022-08-02T08:46:50.879Z,1.90
2022-08-02T08:49:30.320Z,1.85
2022-08-02T08:52:07.675Z,2.20
2022-08-02T08:54:44.897Z,1.98
2022-08-02T08:57:23.042Z,1.80
2022-08-02T08:59:53.527Z,2.25
2022-08-02T09:02:28.103Z,1.77
2022-08-02T09:04:58.977Z,2.03
2022-08-02T09:07:29.132Z,2.20
2022-08-02T09:09:59.366Z,2.20
2022-08-02T09:12:32.237Z,2.15
2022-08-02T09:15:07.896Z,2.50
2022-08-02T09:17:38.077Z,2.30
2022-08-02T09:20:13.447Z,2.20
2022-08-02T09:22:43.655Z,2.35
2022-08-02T09:25:18.828Z,2.70
2022-08-02T09:27:52.141Z,2.05
2022-08-02T09:30:22.604Z,2.10
2022-08-02T09:32:52.758Z,1.92
2022-08-02T09:36:06.102Z,1.90
2022-08-02T09:38:27.877Z,2.38
2022-08-02T09:40:58.332Z,4.28
2022-08-02T09:43:51.959Z,2.13
2022-08-02T09:46:37.991Z,2.20
2022-08-02T09:49:11.584Z,2.05
2022-08-02T09:51:50.451Z,2.33
2022-08-02T09:54:23.512Z,1.70
2022-08-02T09:56:56.643Z,1.70
2022-08-02T09:59:30.984Z,1.70
2022-08-02T10:02:04.069Z,2.03
2022-08-02T10:04:52.929Z,1.80
2022-08-02T10:07:24.914Z,2.92
2022-08-02T10:09:55.532Z,1.77
2022-08-02T10:12:26.633Z,1.83
2022-08-02T10:14:59.613Z,1.92
2022-08-02T10:17:29.940Z,1.92
2022-08-02T10:20:04.234Z,2.03
2022-08-02T10:22:36.897Z,2.00
2022-08-02T10:25:08.538Z,1.95
2022-08-02T10:28:02.956Z,1.83
2022-08-02T10:30:33.705Z,2.28
2022-08-02T10:33:06.582Z,2.13
2022-08-02T10:35:41.417Z,2.20
2022-08-02T10:38:14.754Z,1.88
2022-08-02T10:40:53.383Z,1.85
2022-08-02T10:43:50.766Z,1.53
2022-08-02T10:46:35.726Z,1.60
2022-08-02T10:49:38.202Z,1.80
2022-08-02T10:52:13.675Z,1.80
2022-08-02T10:57:24.892Z,1.83
2022-08-02T10:59:59.078Z,1.80
2022-08-02T11:02:44.530Z,1.90
2022-08-02T11:05:18.409Z,1.80
2022-08-02T11:07:50.911Z,1.98
2022-08-02T11:10:48.122Z,2.00
2022-08-02T11:13:20.974Z,1.80
2022-08-02T11:15:57.073Z,1.63
2022-08-02T11:19:07.113Z,1.60
2022-08-02T11:21:38.765Z,1.80
2022-08-02T11:24:31.682Z,1.80
2022-08-02T11:27:03.651Z,1.70
2022-08-02T11:29:39.926Z,1.88
2022-08-02T11:32:12.010Z,1.90
2022-08-02T11:34:46.716Z,1.80
2022-08-02T11:37:17.128Z,1.80
2022-08-02T11:39:54.606Z,1.70
2022-08-02T11:42:25.097Z,1.70
2022-08-02T11:44:55.439Z,2.30
2022-08-02T11:47:26.983Z,1.88
2022-08-02T11:50:09.130Z,1.90
2022-08-02T11:52:40.697Z,1.80
2022-08-02T11:55:14.153Z,1.60
2022-08-02T11:58:03.671Z,1.60
2022-08-02T12:00:34.539Z,1.90
2022-08-02T12:03:04.804Z,1.90
2022-08-02T12:06:05.023Z,2.00
2022-08-02T12:08:29.466Z,2.00
2022-08-02T12:11:04.218Z,1.90
2022-08-02T12:13:56.708Z,2.10
2022-08-02T12:16:40.472Z,1.80
2022-08-02T12:19:23.726Z,2.20
2022-08-02T12:22:17.736Z,2.20
2022-08-02T12:24:51.021Z,2.50
2022-08-02T12:27:36.902Z,2.20
2022-08-02T12:30:11.245Z,1.88
2022-08-02T12:32:42.418Z,2.00
2022-08-02T12:35:26.322Z,2.03
2022-08-02T12:37:59.811Z,2.05
2022-08-02T12:40:36.020Z,2.03
2022-08-02T12:43:08.957Z,2.10
2022-08-02T12:45:53.175Z,2.10
2022-08-02T12:48:39.140Z,2.30
2022-08-02T12:51:24.483Z,1.67
2022-08-02T12:54:00.328Z,1.90
2022-08-02T12:56:33.593Z,2.05
2022-08-02T12:59:03.877Z,2.10
2022-08-02T13:01:34.312Z,2.08
2022-08-02T13:04:10.698Z,2.00
2022-08-02T13:06:45.423Z,2.50
2022-08-02T13:09:20.382Z,2.35
2022-08-02T13:11:50.596Z,2.40
2022-08-02T13:14:20.973Z,2.33
2022-08-02T13:16:51.644Z,2.22
2022-08-02T13:19:21.878Z,2.03
2022-08-02T13:22:02.556Z,1.67
2022-08-02T13:24:41.053Z,3.08
2022-08-02T13:27:28.679Z,2.10
2022-08-02T13:30:00.232Z,2.10
2022-08-02T13:32:31.780Z,2.00
2022-08-02T13:35:02.532Z,2.08
2022-08-02T13:37:40.048Z,2.20
2022-08-02T13:40:22.707Z,1.88
2022-08-02T13:42:53.710Z,2.25
2022-08-02T13:45:24.055Z,2.30
2022-08-02T13:48:04.481Z,2.40
2022-08-02T13:50:36.118Z,2.13
2022-08-02T13:53:06.395Z,2.17
2022-08-02T13:55:43.353Z,1.95
2022-08-02T13:58:13.794Z,2.20
2022-08-02T14:00:43.945Z,2.25
2022-08-02T14:03:14.209Z,2.30
2022-08-02T14:05:47.434Z,2.20
2022-08-02T14:08:20.181Z,2.70
2022-08-02T14:10:54.646Z,2.60
2022-08-02T14:13:24.876Z,2.20
2022-08-02T14:15:55.203Z,2.45
2022-08-02T14:18:25.822Z,2.30
2022-08-02T14:20:56.251Z,2.80
2022-08-02T14:23:50.189Z,2.13
2022-08-02T14:26:27.710Z,1.92
2022-08-02T14:28:58.415Z,2.00
2022-08-02T14:31:28.649Z,2.85
2022-08-02T14:33:58.930Z,2.20
2022-08-02T14:36:29.189Z,2.00
2022-08-02T14:38:59.904Z,2.20
2022-08-02T14:41:58.121Z,2.10
2022-08-02T14:44:24.149Z,1.90
2022-08-02T14:46:54.900Z,2.90
2022-08-02T14:49:26.961Z,2.15
2022-08-02T14:51:57.734Z,2.00
2022-08-02T14:54:31.617Z,1.88
2022-08-02T14:57:06.710Z,2.15
2022-08-02T14:59:36.891Z,1.92
2022-08-02T15:02:14.856Z,2.00
2022-08-02T15:04:45.633Z,1.83
2022-08-02T15:07:17.191Z,2.17
2022-08-02T15:09:47.632Z,1.95
2022-08-02T15:12:20.496Z,2.30
2022-08-02T15:14:50.913Z,2.22
2022-08-02T15:17:21.082Z,2.47
2022-08-02T15:19:59.581Z,2.25
2022-08-02T15:22:32.171Z,2.03
2022-08-02T15:25:03.379Z,1.98
2022-08-02T15:27:36.261Z,2.03
2022-08-02T15:30:10.828Z,2.05
2022-08-02T15:32:41.002Z,2.05
2022-08-02T15:35:23.826Z,2.17
2022-08-02T15:37:54.414Z,1.90
2022-08-02T15:40:24.951Z,2.20
2022-08-02T15:42:57.793Z,2.03
2022-08-02T15:45:28.296Z,2.38
2022-08-02T15:47:58.560Z,2.05
2022-08-02T15:50:28.762Z,2.00
2022-08-02T15:52:58.986Z,2.35
2022-08-02T15:55:29.182Z,2.47
2022-08-02T15:58:16.994Z,2.10
2022-08-02T16:00:51.215Z,2.42
2022-08-02T16:03:21.500Z,2.00
2022-08-02T16:05:51.681Z,2.33
2022-08-02T16:08:21.876Z,2.20
2022-08-02T16:10:52.238Z,2.00
2022-08-02T16:13:41.248Z,1.95
2022-08-02T16:16:24.351Z,1.90
2022-08-02T16:18:55.080Z,1.90
2022-08-02T16:21:26.344Z,2.10
2022-08-02T16:24:02.364Z,2.00
2022-08-02T16:26:34.884Z,2.10
2022-08-02T16:29:07.969Z,2.00
2022-08-02T16:31:42.642Z,2.20
2022-08-02T16:34:13.239Z,2.00
2022-08-02T16:36:43.464Z,2.13
2022-08-02T16:39:13.738Z,2.70
2022-08-02T16:41:51.337Z,2.75
2022-08-02T16:44:29.538Z,2.13
2022-08-02T16:47:02.160Z,2.20
2022-08-02T16:50:03.941Z,2.20
2022-08-02T16:52:22.718Z,2.25
2022-08-02T16:54:54.305Z,2.08
2022-08-02T16:57:24.456Z,1.85
2022-08-02T17:00:17.842Z,2.10
2022-08-02T17:02:48.048Z,1.80
2022-08-02T17:05:18.550Z,2.33
2022-08-02T17:08:07.506Z,2.10
2022-08-02T17:10:42.263Z,1.80
2022-08-02T17:13:12.990Z,2.13
2022-08-02T17:16:08.002Z,2.58
2022-08-02T17:18:42.646Z,2.30
2022-08-02T17:21:14.154Z,2.15
2022-08-02T17:24:07.787Z,2.10
2022-08-02T17:26:39.368Z,2.58
2022-08-02T17:29:16.257Z,2.40
2022-08-02T17:32:02.617Z,2.13
2022-08-02T17:34:40.063Z,2.22
2022-08-02T17:37:19.367Z,1.88
2022-08-02T17:39:51.824Z,2.33
2022-08-02T17:42:24.751Z,1.88
2022-08-02T17:45:01.087Z,2.33
2022-08-02T17:48:04.405Z,2.03
2022-08-02T17:50:36.212Z,1.90
2022-08-02T17:53:06.546Z,1.92
2022-08-02T17:55:42.320Z,2.05
2022-08-02T17:58:12.884Z,2.10
2022-08-02T18:00:45.008Z,1.90
2022-08-02T18:03:18.147Z,2.80
2022-08-02T18:05:55.259Z,6.07
2022-08-02T18:08:26.073Z,2.83
2022-08-02T18:10:57.141Z,2.53
2022-08-02T18:13:32.925Z,2.30
2022-08-02T18:16:06.322Z,2.30
2022-08-02T18:18:54.358Z,2.30
2022-08-02T18:21:24.666Z,2.13
2022-08-02T18:23:58.418Z,2.45
2022-08-02T18:26:30.161Z,2.20
2022-08-02T18:29:04.264Z,2.20
2022-08-02T18:31:39.446Z,2.10
2022-08-02T18:34:12.934Z,1.95
2022-08-02T18:36:47.211Z,1.70
2022-08-02T18:39:18.493Z,2.20
2022-08-02T18:41:48.659Z,1.90
2022-08-02T18:44:21.050Z,2.08
2022-08-02T18:46:51.722Z,2.10
2022-08-02T18:49:30.071Z,2.20
2022-08-02T18:52:16.346Z,2.47
2022-08-02T18:55:01.498Z,2.60
2022-08-02T19:00:25.538Z,2.30
2022-08-02T19:02:56.902Z,2.80
2022-08-02T19:05:51.563Z,2.83
2022-08-02T19:08:25.400Z,2.30
2022-08-02T19:10:57.393Z,2.25
2022-08-02T19:13:27.682Z,2.80
2022-08-02T19:18:30.227Z,2.30
2022-08-02T19:21:05.692Z,2.10
2022-08-02T19:23:37.626Z,1.80
2022-08-02T19:26:25.896Z,1.85
2022-08-02T19:28:56.206Z,1.95
2022-08-02T19:31:34.662Z,1.80
2022-08-02T19:34:19.503Z,2.63
2022-08-02T19:36:57.960Z,2.17
2022-08-02T19:39:28.981Z,1.90
2022-08-02T19:42:01.015Z,2.15
2022-08-02T19:47:01.188Z,2.17
2022-08-02T19:49:40.312Z,2.00
2022-08-02T19:52:21.170Z,1.90
2022-08-02T19:54:55.902Z,2.15
2022-08-02T19:57:28.595Z,2.00
2022-08-02T20:00:05.618Z,1.95
2022-08-02T20:02:46.660Z,2.50
2022-08-02T20:05:26.763Z,2.40
2022-08-02T20:07:59.949Z,3.13
2022-08-02T20:10:33.481Z,2.20
2022-08-02T20:13:04.009Z,2.40
2022-08-02T20:15:55.832Z,2.28
2022-08-02T20:18:26.909Z,2.30
2022-08-02T20:20:59.207Z,1.80
2022-08-02T20:23:34.251Z,2.10
2022-08-02T20:26:06.361Z,2.38
2022-08-02T20:28:39.244Z,2.30
2022-08-02T20:31:10.762Z,2.20
2022-08-02T20:33:56.165Z,2.38
2022-08-02T20:36:27.196Z,2.20
2022-08-02T20:39:00.127Z,2.38
2022-08-02T20:41:36.866Z,2.40
2022-08-02T20:44:30.785Z,2.28
2022-08-02T20:47:01.386Z,2.50
2022-08-02T20:49:40.426Z,2.55
2022-08-02T20:52:23.317Z,2.28
2022-08-02T20:54:56.931Z,2.60
2022-08-02T20:57:36.229Z,2.90
2022-08-02T21:00:20.800Z,2.42
2022-08-02T21:02:51.483Z,2.50
2022-08-02T21:05:26.810Z,2.50
2022-08-02T21:08:15.344Z,3.35
2022-08-02T21:10:50.459Z,2.30
2022-08-02T21:13:26.376Z,2.20
2022-08-02T21:16:01.379Z,2.67
2022-08-02T21:18:40.606Z,2.67
2022-08-02T21:21:14.639Z,2.38
2022-08-02T21:23:48.789Z,2.60
2022-08-02T21:26:30.371Z,2.35
2022-08-02T21:29:03.693Z,2.15
2022-08-02T21:31:36.116Z,2.20
2022-08-02T21:34:21.887Z,2.10
2022-08-02T21:36:57.273Z,2.53
2022-08-02T21:39:28.571Z,2.30
2022-08-02T21:42:01.992Z,2.40
2022-08-02T21:44:32.409Z,2.30
2022-08-02T21:47:02.636Z,2.38
2022-08-02T21:50:08.599Z,2.40
2022-08-02T21:52:25.971Z,2.72
2022-08-02T21:54:57.975Z,2.25
2022-08-02T21:57:34.692Z,2.33
2022-08-02T22:00:07.114Z,2.33
2022-08-02T22:02:39.149Z,2.33
2022-08-02T22:05:14.251Z,2.20
2022-08-02T22:07:45.603Z,2.38
2022-08-02T22:10:16.167Z,2.03
2022-08-02T22:12:49.143Z,2.28
2022-08-02T22:15:35.813Z,2.22
2022-08-02T22:18:06.646Z,2.40
2022-08-02T22:20:44.491Z,2.35
2022-08-02T22:23:22.653Z,2.58
2022-08-02T22:26:06.921Z,2.38
2022-08-02T22:28:50.514Z,2.60
2022-08-02T22:31:24.860Z,2.40
2022-08-02T22:34:37.329Z,2.50
2022-08-02T22:37:02.394Z,3.00
2022-08-02T22:39:36.410Z,2.40
2022-08-02T22:42:26.386Z,2.47
2022-08-02T22:44:59.174Z,2.38
2022-08-02T22:47:29.730Z,2.55
2022-08-02T22:50:11.872Z,2.50
2022-08-02T22:52:42.259Z,2.58
2022-08-02T22:55:17.504Z,2.40
2022-08-02T22:57:56.888Z,2.45
2022-08-02T23:00:41.293Z,2.50
2022-08-02T23:03:11.687Z,2.85
2022-08-02T23:05:41.867Z,2.50
2022-08-02T23:08:12.053Z,2.47
2022-08-02T23:10:42.309Z,2.53
2022-08-02T23:13:12.547Z,2.60
2022-08-02T23:15:58.166Z,2.50
2022-08-02T23:18:41.839Z,2.20
2022-08-02T23:21:12.033Z,2.60
2022-08-02T23:23:42.241Z,2.10
2022-08-02T23:26:12.620Z,2.33
2022-08-02T23:28:42.823Z,2.47
2022-08-02T23:31:38.441Z,2.22
2022-08-02T23:34:08.960Z,2.53
2022-08-02T23:36:39.205Z,2.63
2022-08-02T23:39:09.350Z,2.63
2022-08-02T23:41:39.559Z,2.92
2022-08-02T23:44:14.401Z,2.58
2022-08-02T23:46:49.188Z,2.70
2022-08-02T23:49:19.973Z,2.70
2022-08-02T23:51:50.522Z,2.63
2022-08-02T23:54:21.142Z,2.22
2022-08-02T23:59:21.307Z,2.30
